To NAV CANADA Home Page Login to a new session Search on AWWS site Feedback and Comments Disclaimer Vers la page française équivalente Tips FAQ What's new on the site To the Forecasts and Observations / NOTAM section To "File a Flight Plan" website Publications and other links Update of the User's profile FIC Telephone Numbers My Weather Data Folder Route Weather Data Regional Weather Data Local Weather Data To the Forecasts and Observations / NOTAM section
Request Generated 08/27/2016 at 18:43:04 UTC . Weather information available at that time is displayed.

METAR/TAF

DAWSON CITY/YT    

SPECI CYDA 271803Z 09003KT 020V140 20SM VCFG FEW003 SCT008 OVC075
05/05 A3021 RMK ST2SF2AC4 VIS 2 E & SE SLP247=
METAR CYDA 271800Z VRB02KT 1SM BR OVC075 05/05 A3021 RMK FG5AC3
SLP249=
SPECI CYDA 271721Z 09004KT 020V110 1/2SM FG OVC075 05/04 A3022 RMK
FG7AC1 VIS 1 E SLP249=
SPECI CYDA 271705Z 08004KT 1/4SM FG OVC075 04/04 A3022 RMK FG7AC1
SLP250=
METAR CYDA 271700Z 08004KT 20SM BKN080 04/04 A3022 RMK FG2AC3 VIS 1/2
E/2 W SLP250=
SPECI CYDA 271634Z 08005KT 3/8SM FG BKN080 BKN200 04/04 A3022 RMK
FG7AC1CI1 AC TR CI TR SLP250=
METAR CYDA 271600Z 07004KT 1/4SM FG VV004 03/03 A3023 RMK FG8 SLP253=

TAF CYDA 271738Z 2718/2803 VRB03KT 1/4SM FG VV004
BECMG 2718/2719 P6SM NSW FEW004 FEW080
FM271900 VRB03KT P6SM FEW050 FEW080
FM272300 VRB03KT P6SM BKN050
RMK NXT FCST BY 280000Z=
Your time UTC time
Weather data provided by Environment Canada and NAV CANADA